createdAt,value
2023-05-31T00:01:07.743Z,14.00
2023-05-31T00:03:35.248Z,14.00
2023-05-31T00:06:02.559Z,13.90
2023-05-31T00:08:29.278Z,13.90
2023-05-31T00:10:56.062Z,13.90
2023-05-31T00:13:22.973Z,13.80
2023-05-31T00:15:49.730Z,13.80
2023-05-31T00:18:16.599Z,13.80
2023-05-31T00:20:43.396Z,13.70
2023-05-31T00:23:10.237Z,13.70
2023-05-31T00:25:37.078Z,13.70
2023-05-31T00:28:04.056Z,13.70
2023-05-31T00:30:30.884Z,13.70
2023-05-31T00:32:57.718Z,13.60
2023-05-31T00:35:24.493Z,13.60
2023-05-31T00:37:51.312Z,13.60
2023-05-31T00:40:18.116Z,13.70
2023-05-31T00:42:44.957Z,13.60
2023-05-31T00:45:12.873Z,13.50
2023-05-31T00:47:40.703Z,13.50
2023-05-31T00:50:08.408Z,13.40
2023-05-31T00:52:35.705Z,13.40
2023-05-31T00:55:03.660Z,13.40
2023-05-31T00:57:31.163Z,13.40
2023-05-31T01:04:15.311Z,13.30
2023-05-31T01:07:01.815Z,13.40
2023-05-31T01:09:32.944Z,13.40
2023-05-31T01:13:33.296Z,13.40
2023-05-31T01:29:39.924Z,13.40
2023-05-31T01:32:09.704Z,13.40
2023-05-31T01:34:39.360Z,13.40
2023-05-31T01:37:06.639Z,13.30
2023-05-31T01:39:33.658Z,13.30
2023-05-31T01:42:02.267Z,13.30
2023-05-31T01:44:33.303Z,13.20
2023-05-31T01:47:00.815Z,13.20
2023-05-31T01:49:28.207Z,13.30
2023-05-31T01:51:55.832Z,13.20
2023-05-31T01:54:23.030Z,13.30
2023-05-31T01:56:51.011Z,13.20
2023-05-31T01:59:18.342Z,13.20
2023-05-31T02:01:46.124Z,13.20
2023-05-31T02:04:13.213Z,13.20
2023-05-31T02:06:40.168Z,13.10
2023-05-31T02:09:08.051Z,13.00
2023-05-31T02:11:35.142Z,13.00
2023-05-31T02:14:02.169Z,13.00
2023-05-31T02:16:29.118Z,13.00
2023-05-31T02:18:57.383Z,12.90
2023-05-31T02:21:24.418Z,12.90
2023-05-31T02:23:51.500Z,12.90
2023-05-31T02:26:18.813Z,12.90
2023-05-31T02:28:46.081Z,12.90
2023-05-31T02:31:13.147Z,12.90
2023-05-31T02:33:42.942Z,12.90
2023-05-31T02:36:11.122Z,12.90
2023-05-31T02:38:38.854Z,12.90
2023-05-31T02:41:05.969Z,12.90
2023-05-31T02:43:33.070Z,12.80
2023-05-31T02:46:02.963Z,12.80
2023-05-31T02:48:31.344Z,12.80
2023-05-31T02:50:59.528Z,12.70
2023-05-31T02:53:41.881Z,12.80
2023-05-31T02:56:16.069Z,12.80
2023-05-31T02:59:01.762Z,12.70
2023-05-31T03:01:28.764Z,12.70
2023-05-31T03:04:07.892Z,12.70
2023-05-31T03:06:37.524Z,12.70
2023-05-31T03:09:04.769Z,12.60
2023-05-31T03:11:33.955Z,12.60
2023-05-31T03:14:01.154Z,12.70
2023-05-31T03:16:42.945Z,12.70
2023-05-31T03:19:13.604Z,12.60
2023-05-31T03:21:42.444Z,12.60
2023-05-31T03:24:09.492Z,12.60
2023-05-31T03:26:37.401Z,12.50
2023-05-31T03:29:04.508Z,12.50
2023-05-31T03:31:34.619Z,12.50
2023-05-31T03:34:02.185Z,12.40
2023-05-31T03:36:29.306Z,12.40
2023-05-31T03:38:58.420Z,12.40
2023-05-31T03:41:25.389Z,12.40
2023-05-31T03:43:53.201Z,12.30
2023-05-31T03:46:20.727Z,12.30
2023-05-31T03:48:49.005Z,12.40
2023-05-31T03:51:18.623Z,12.40
2023-05-31T03:53:46.110Z,12.50
2023-05-31T03:56:13.259Z,12.40
2023-05-31T03:58:41.448Z,12.40
2023-05-31T04:01:10.352Z,12.40
2023-05-31T04:03:39.340Z,12.30
2023-05-31T04:06:08.600Z,12.20
2023-05-31T04:08:36.576Z,12.10
2023-05-31T04:11:04.236Z,12.10
2023-05-31T04:13:31.415Z,12.10
2023-05-31T04:15:58.730Z,11.90
2023-05-31T04:18:25.712Z,11.90
2023-05-31T04:20:52.999Z,11.90
2023-05-31T04:23:20.491Z,11.90
2023-05-31T04:25:48.998Z,11.90
2023-05-31T04:28:16.538Z,11.80
2023-05-31T04:30:45.671Z,11.90
2023-05-31T04:33:13.745Z,12.20
2023-05-31T04:35:41.627Z,12.20
2023-05-31T04:38:09.297Z,12.30
2023-05-31T04:40:36.360Z,12.40
2023-05-31T04:43:04.040Z,12.60
2023-05-31T04:45:33.785Z,12.60
2023-05-31T04:48:01.996Z,12.60
2023-05-31T04:50:31.034Z,12.70
2023-05-31T04:52:59.102Z,12.70
2023-05-31T04:55:27.412Z,12.80
2023-05-31T04:57:55.564Z,12.80
2023-05-31T05:00:22.571Z,12.80
2023-05-31T05:03:11.099Z,12.90
2023-05-31T05:05:38.920Z,12.90
2023-05-31T05:08:06.278Z,12.90
2023-05-31T05:10:33.305Z,13.00
2023-05-31T05:13:00.466Z,13.00
2023-05-31T05:15:27.538Z,13.00
2023-05-31T05:17:54.614Z,13.00
2023-05-31T05:20:22.517Z,13.10
2023-05-31T05:22:55.101Z,13.20
2023-05-31T05:25:23.648Z,13.30
2023-05-31T05:27:51.297Z,13.30
2023-05-31T05:30:19.504Z,13.30
2023-05-31T05:32:48.474Z,13.30
2023-05-31T05:35:16.068Z,13.30
2023-05-31T05:37:43.135Z,13.40
2023-05-31T05:40:10.795Z,13.40
2023-05-31T05:42:37.906Z,13.40
2023-05-31T05:45:08.138Z,13.40
2023-05-31T05:47:36.926Z,13.40
2023-05-31T05:50:04.310Z,13.50
2023-05-31T05:52:31.388Z,13.50
2023-05-31T05:54:58.646Z,13.50
2023-05-31T05:57:26.285Z,13.70
2023-05-31T06:00:00.131Z,13.90
2023-05-31T06:02:28.337Z,13.90
2023-05-31T06:04:58.550Z,14.00
2023-05-31T06:07:25.824Z,14.00
2023-05-31T06:09:53.994Z,14.00
2023-05-31T06:12:21.986Z,14.10
2023-05-31T06:14:49.849Z,14.20
2023-05-31T06:17:16.947Z,14.30
2023-05-31T06:19:43.952Z,14.40
2023-05-31T06:22:11.105Z,14.40
2023-05-31T06:24:38.212Z,14.50
2023-05-31T06:27:06.237Z,14.60
2023-05-31T06:29:37.319Z,14.90
2023-05-31T06:32:26.303Z,14.90
2023-05-31T06:34:54.102Z,14.90
2023-05-31T06:37:22.944Z,15.10
2023-05-31T06:39:50.834Z,15.20
2023-05-31T06:42:18.481Z,15.20
2023-05-31T06:45:00.565Z,15.10
2023-05-31T06:47:47.783Z,15.10
2023-05-31T06:50:17.733Z,15.30
2023-05-31T06:52:47.246Z,15.30
2023-05-31T06:55:43.250Z,15.40
2023-05-31T06:58:16.651Z,15.50
2023-05-31T07:00:46.870Z,15.60
2023-05-31T07:03:14.463Z,15.70
2023-05-31T07:05:44.987Z,15.90
2023-05-31T07:08:11.955Z,15.90
2023-05-31T07:10:58.911Z,16.10
2023-05-31T07:13:25.889Z,16.20
2023-05-31T07:15:52.696Z,16.20
2023-05-31T07:18:19.470Z,16.30
2023-05-31T07:20:47.543Z,16.40
2023-05-31T07:23:14.270Z,16.50
2023-05-31T07:25:42.504Z,16.50
2023-05-31T07:28:09.873Z,16.60
2023-05-31T07:30:36.618Z,16.70
2023-05-31T07:33:03.541Z,16.80
2023-05-31T07:35:30.388Z,16.80
2023-05-31T07:37:57.165Z,16.80
2023-05-31T07:40:24.013Z,16.90
2023-05-31T07:42:50.736Z,17.00
2023-05-31T07:45:17.514Z,17.00
2023-05-31T07:47:44.252Z,17.10
2023-05-31T07:50:11.058Z,17.20
2023-05-31T07:52:37.812Z,17.20
2023-05-31T07:55:05.418Z,17.30
2023-05-31T07:57:34.174Z,17.30
2023-05-31T08:00:00.907Z,17.30
2023-05-31T08:02:27.647Z,17.30
2023-05-31T08:04:55.655Z,17.40
2023-05-31T08:07:22.408Z,17.50
2023-05-31T08:09:49.128Z,17.60
2023-05-31T08:12:16.144Z,17.60
2023-05-31T08:14:42.866Z,17.60
2023-05-31T08:17:09.721Z,17.70
2023-05-31T08:19:36.522Z,17.80
2023-05-31T08:22:03.397Z,18.00
2023-05-31T08:24:30.121Z,18.00
2023-05-31T08:26:57.880Z,17.90
2023-05-31T08:29:24.651Z,18.10
2023-05-31T08:31:51.380Z,18.20
2023-05-31T08:34:19.295Z,18.20
2023-05-31T08:36:46.207Z,18.40
2023-05-31T08:39:13.029Z,18.40
2023-05-31T08:41:46.805Z,18.60
2023-05-31T08:44:15.323Z,18.60
2023-05-31T08:46:44.762Z,18.60
2023-05-31T08:49:13.344Z,18.70
2023-05-31T08:51:41.874Z,18.70
2023-05-31T08:54:10.944Z,18.70
2023-05-31T08:56:41.209Z,18.80
2023-05-31T08:59:11.416Z,18.80
2023-05-31T09:01:39.065Z,18.70
2023-05-31T09:04:07.209Z,18.80
2023-05-31T09:06:35.236Z,18.90
2023-05-31T09:09:02.791Z,19.00
2023-05-31T09:11:29.665Z,19.10
2023-05-31T09:13:56.383Z,19.20
2023-05-31T09:16:26.767Z,19.20
2023-05-31T09:19:05.989Z,19.20
2023-05-31T09:21:44.565Z,19.20
2023-05-31T09:24:13.484Z,19.20
2023-05-31T09:26:50.418Z,19.40
2023-05-31T09:29:18.951Z,19.50
2023-05-31T09:31:46.638Z,19.50
2023-05-31T09:34:24.982Z,19.40
2023-05-31T09:36:52.623Z,19.50
2023-05-31T09:39:21.176Z,19.50
2023-05-31T09:41:51.877Z,19.70
2023-05-31T09:44:18.833Z,19.70
2023-05-31T09:46:48.758Z,19.70
2023-05-31T09:49:15.622Z,19.90
2023-05-31T09:51:51.756Z,20.00
2023-05-31T09:54:18.848Z,20.00
2023-05-31T09:56:45.832Z,20.10
2023-05-31T09:59:13.152Z,20.10
2023-05-31T10:01:40.239Z,20.10
2023-05-31T10:04:07.401Z,20.30
2023-05-31T10:06:37.080Z,20.50
2023-05-31T10:09:08.554Z,20.60
2023-05-31T10:11:37.162Z,20.70
2023-05-31T10:14:21.860Z,20.70
2023-05-31T10:16:55.110Z,20.60
2023-05-31T10:19:28.581Z,20.40
2023-05-31T10:21:59.054Z,20.40
2023-05-31T10:24:35.298Z,20.50
2023-05-31T10:27:18.644Z,20.60
2023-05-31T10:29:49.881Z,20.60
2023-05-31T10:32:25.344Z,20.70
2023-05-31T10:34:53.947Z,20.80
2023-05-31T10:37:22.303Z,20.80
2023-05-31T10:40:07.515Z,20.80
2023-05-31T10:42:41.770Z,20.80
2023-05-31T10:45:34.264Z,20.90
2023-05-31T10:48:16.386Z,20.90
2023-05-31T10:50:53.494Z,20.80
2023-05-31T10:53:20.354Z,20.80
2023-05-31T10:55:48.423Z,20.90
2023-05-31T10:58:29.708Z,20.90
2023-05-31T11:00:58.319Z,21.00
2023-05-31T11:03:27.545Z,21.10
2023-05-31T11:06:00.635Z,21.20
2023-05-31T11:08:28.820Z,21.40
2023-05-31T11:11:33.598Z,21.30
2023-05-31T11:14:02.079Z,21.50
2023-05-31T11:16:32.438Z,21.50
2023-05-31T11:19:07.153Z,21.50
2023-05-31T11:21:51.604Z,21.50
2023-05-31T11:24:51.714Z,21.70
2023-05-31T11:27:20.425Z,21.80
2023-05-31T11:29:53.370Z,21.80
2023-05-31T11:32:36.108Z,21.80
2023-05-31T11:35:12.208Z,21.90
2023-05-31T11:37:39.956Z,21.90
2023-05-31T11:40:11.754Z,21.90
2023-05-31T11:42:40.757Z,21.90
2023-05-31T11:45:09.719Z,22.00
2023-05-31T11:47:45.537Z,22.00
2023-05-31T11:50:19.834Z,22.00
2023-05-31T11:52:46.859Z,22.00
2023-05-31T11:55:19.178Z,21.90
2023-05-31T11:57:47.960Z,21.90
2023-05-31T12:00:16.449Z,22.00
2023-05-31T12:02:45.876Z,22.00
2023-05-31T12:05:13.837Z,22.00
2023-05-31T12:07:40.881Z,22.20
2023-05-31T12:10:08.736Z,22.20
2023-05-31T12:12:36.902Z,22.10
2023-05-31T12:15:04.500Z,22.20
2023-05-31T12:17:32.181Z,22.30
2023-05-31T12:19:59.803Z,22.30
2023-05-31T12:22:27.925Z,22.30
2023-05-31T12:24:56.158Z,22.30
2023-05-31T12:27:33.499Z,22.30
2023-05-31T12:30:18.828Z,22.40
2023-05-31T12:32:46.847Z,22.40
2023-05-31T12:35:14.300Z,22.60
2023-05-31T12:37:41.276Z,22.60
2023-05-31T12:40:13.068Z,22.70
2023-05-31T12:42:40.097Z,22.60
2023-05-31T12:45:09.384Z,22.70
2023-05-31T12:47:37.199Z,22.90
2023-05-31T12:50:08.350Z,22.90
2023-05-31T12:52:40.101Z,23.00
2023-05-31T12:55:08.829Z,22.90
2023-05-31T12:57:38.321Z,23.00
2023-05-31T13:00:10.728Z,23.10
2023-05-31T13:02:41.633Z,23.00
2023-05-31T13:05:09.337Z,23.10
2023-05-31T13:07:36.208Z,23.20
2023-05-31T13:10:12.082Z,23.20
2023-05-31T13:12:39.551Z,23.20
2023-05-31T13:15:07.890Z,23.30
2023-05-31T13:17:34.847Z,23.50
2023-05-31T13:20:14.896Z,23.60
2023-05-31T13:22:42.536Z,23.60
2023-05-31T13:25:10.199Z,23.80
2023-05-31T13:27:37.199Z,23.70
2023-05-31T13:30:04.408Z,23.70
2023-05-31T13:32:31.892Z,23.70
2023-05-31T13:35:00.972Z,23.90
2023-05-31T13:37:28.492Z,24.10
2023-05-31T13:39:56.584Z,24.30
2023-05-31T13:42:24.066Z,24.40
2023-05-31T13:44:50.824Z,24.40
2023-05-31T13:47:17.852Z,24.40
2023-05-31T13:49:44.630Z,24.40
2023-05-31T13:52:14.528Z,24.60
2023-05-31T13:54:41.743Z,24.70
2023-05-31T13:57:08.594Z,24.50
2023-05-31T13:59:35.301Z,24.60
2023-05-31T14:02:02.166Z,24.70
2023-05-31T14:04:31.331Z,24.70
2023-05-31T14:06:58.534Z,24.80
2023-05-31T14:09:25.861Z,24.70
2023-05-31T14:11:53.021Z,24.80
2023-05-31T14:14:19.862Z,24.80
2023-05-31T14:16:46.635Z,25.00
2023-05-31T14:19:13.418Z,25.10
2023-05-31T14:21:43.561Z,25.20
2023-05-31T14:24:11.002Z,25.20
2023-05-31T14:26:38.736Z,25.30
2023-05-31T14:29:05.594Z,25.30
2023-05-31T14:31:32.520Z,25.40
2023-05-31T14:33:59.536Z,25.50
2023-05-31T14:36:26.859Z,25.30
2023-05-31T14:38:54.585Z,25.40
2023-05-31T14:41:21.491Z,25.50
2023-05-31T14:43:49.343Z,25.60
2023-05-31T14:46:16.199Z,25.70
2023-05-31T14:48:43.058Z,25.40
2023-05-31T14:51:09.800Z,25.50
2023-05-31T14:53:36.521Z,25.60
2023-05-31T14:58:34.349Z,25.70
2023-05-31T15:01:01.303Z,25.60
2023-05-31T15:03:28.414Z,25.50
2023-05-31T15:05:55.296Z,25.50
2023-05-31T15:08:22.758Z,25.50
2023-05-31T15:10:52.614Z,25.40
2023-05-31T15:13:19.356Z,25.30
2023-05-31T15:15:46.070Z,25.40
2023-05-31T15:18:14.269Z,25.40
2023-05-31T15:20:41.112Z,25.60
2023-05-31T15:23:07.979Z,25.80
2023-05-31T15:25:34.724Z,25.90
2023-05-31T15:28:01.452Z,26.00
2023-05-31T15:30:28.158Z,25.80
2023-05-31T15:32:54.960Z,25.90
2023-05-31T15:35:21.915Z,25.90
2023-05-31T15:37:48.659Z,26.00
2023-05-31T15:40:15.625Z,25.80
2023-05-31T15:42:42.344Z,25.70
2023-05-31T15:45:09.553Z,25.70
2023-05-31T15:47:36.390Z,25.90
2023-05-31T15:50:03.857Z,26.00
2023-05-31T15:52:30.895Z,26.10
2023-05-31T15:54:57.635Z,26.10
2023-05-31T15:57:24.364Z,26.20
2023-05-31T15:59:51.177Z,26.30
2023-05-31T16:02:17.944Z,26.50
2023-05-31T16:04:45.165Z,26.80
2023-05-31T16:07:11.882Z,27.00
2023-05-31T16:09:38.600Z,27.10
2023-05-31T16:12:06.901Z,27.50
2023-05-31T16:14:33.857Z,28.10
2023-05-31T16:17:01.661Z,28.70
2023-05-31T16:19:29.746Z,29.50
2023-05-31T16:21:56.607Z,30.20
2023-05-31T16:24:23.583Z,30.50
2023-05-31T16:26:51.605Z,30.80
2023-05-31T16:29:18.785Z,31.00
2023-05-31T16:31:45.620Z,31.30
2023-05-31T16:34:12.402Z,31.80
2023-05-31T16:36:39.315Z,32.40
2023-05-31T16:39:08.590Z,33.00
2023-05-31T16:41:35.773Z,32.50
2023-05-31T16:44:03.151Z,32.40
2023-05-31T16:46:30.147Z,32.50
2023-05-31T16:48:58.685Z,32.60
2023-05-31T16:51:26.170Z,32.70
2023-05-31T16:53:53.748Z,32.70
2023-05-31T16:56:20.818Z,32.40
2023-05-31T16:58:47.705Z,32.30
2023-05-31T17:01:14.477Z,31.80
2023-05-31T17:03:41.501Z,31.70
2023-05-31T17:06:08.309Z,31.30
2023-05-31T17:08:35.065Z,31.30
2023-05-31T17:11:01.850Z,31.90
2023-05-31T17:13:28.617Z,31.90
2023-05-31T17:15:55.386Z,31.40
2023-05-31T17:18:22.206Z,31.00
2023-05-31T17:20:49.642Z,30.60
2023-05-31T17:23:16.375Z,30.70
2023-05-31T17:25:59.047Z,30.60
2023-05-31T17:28:25.864Z,30.30
2023-05-31T17:30:52.633Z,30.10
2023-05-31T17:33:19.348Z,29.90
2023-05-31T17:35:46.201Z,29.90
2023-05-31T17:38:13.597Z,29.90
2023-05-31T17:40:40.337Z,29.80
2023-05-31T17:43:07.203Z,29.50
2023-05-31T17:45:33.945Z,29.70
2023-05-31T17:48:00.857Z,29.90
2023-05-31T17:50:27.635Z,29.30
2023-05-31T17:52:54.413Z,28.60
2023-05-31T17:55:23.101Z,28.90
2023-05-31T17:57:50.921Z,29.10
2023-05-31T18:00:17.854Z,29.10
2023-05-31T18:02:44.701Z,28.80
2023-05-31T18:05:12.214Z,28.80
2023-05-31T18:07:39.015Z,28.70
2023-05-31T18:10:06.382Z,28.50
2023-05-31T18:12:33.171Z,28.30
2023-05-31T18:15:00.235Z,28.40
2023-05-31T18:17:27.340Z,28.30
2023-05-31T18:19:54.637Z,28.30
2023-05-31T18:22:21.375Z,27.90
2023-05-31T18:24:48.078Z,27.60
2023-05-31T18:27:16.704Z,27.20
2023-05-31T18:29:43.589Z,26.40
2023-05-31T18:32:10.498Z,25.40
2023-05-31T18:34:37.924Z,24.70
2023-05-31T18:37:05.627Z,24.10
2023-05-31T18:39:32.431Z,23.50
2023-05-31T18:41:59.149Z,23.10
2023-05-31T18:44:26.022Z,22.80
2023-05-31T18:46:53.894Z,22.60
2023-05-31T18:49:20.981Z,22.30
2023-05-31T18:51:48.404Z,21.90
2023-05-31T18:54:16.801Z,21.70
2023-05-31T18:56:45.427Z,21.50
2023-05-31T18:59:15.109Z,21.40
2023-05-31T19:01:42.316Z,21.20
2023-05-31T19:04:09.881Z,21.00
2023-05-31T19:06:38.042Z,20.90
2023-05-31T19:09:05.680Z,20.60
2023-05-31T19:11:33.256Z,20.40
2023-05-31T19:14:00.250Z,20.10
2023-05-31T19:16:26.997Z,19.80
2023-05-31T19:18:53.779Z,19.70
2023-05-31T19:21:20.659Z,19.50
2023-05-31T19:23:47.470Z,19.40
2023-05-31T19:26:18.846Z,19.40
2023-05-31T19:28:45.823Z,19.30
2023-05-31T19:31:12.694Z,19.00
2023-05-31T19:33:39.503Z,18.90
2023-05-31T19:36:06.449Z,18.90
2023-05-31T19:38:33.510Z,18.90
2023-05-31T19:41:00.650Z,18.90
2023-05-31T19:43:27.595Z,18.80
2023-05-31T19:45:54.651Z,18.80
2023-05-31T19:48:21.435Z,18.80
2023-05-31T19:50:48.256Z,18.80
2023-05-31T19:53:14.991Z,18.60
2023-05-31T19:55:43.803Z,18.60
2023-05-31T19:58:11.461Z,18.50
2023-05-31T20:00:38.325Z,18.30
2023-05-31T20:03:06.097Z,18.30
2023-05-31T20:05:32.987Z,18.30
2023-05-31T20:07:59.718Z,18.20
2023-05-31T20:10:26.441Z,18.30
2023-05-31T20:12:53.272Z,18.20
2023-05-31T20:15:20.545Z,18.20
2023-05-31T20:17:47.394Z,18.10
2023-05-31T20:20:14.740Z,18.10
2023-05-31T20:22:41.521Z,18.10
2023-05-31T20:25:08.699Z,18.10
2023-05-31T20:27:35.483Z,18.10
2023-05-31T20:30:02.637Z,18.00
2023-05-31T20:32:29.493Z,17.90
2023-05-31T20:34:56.559Z,17.90
2023-05-31T20:37:23.260Z,17.80
2023-05-31T20:39:49.979Z,17.80
2023-05-31T20:42:16.709Z,17.80
2023-05-31T20:44:44.668Z,17.80
2023-05-31T20:47:11.977Z,17.80
2023-05-31T20:49:38.782Z,17.80
2023-05-31T20:52:11.957Z,17.80
2023-05-31T20:54:43.448Z,17.80
2023-05-31T20:57:10.868Z,17.80
2023-05-31T20:59:38.101Z,17.80
2023-05-31T21:02:05.345Z,17.80
2023-05-31T21:04:32.419Z,17.80
2023-05-31T21:06:59.569Z,17.70
2023-05-31T21:09:28.358Z,17.60
2023-05-31T21:11:55.662Z,17.60
2023-05-31T21:14:22.469Z,17.60
2023-05-31T21:16:49.421Z,17.70
2023-05-31T21:19:16.288Z,17.70
2023-05-31T21:21:43.078Z,17.70
2023-05-31T21:24:09.900Z,17.70
2023-05-31T21:26:36.641Z,17.60
2023-05-31T21:29:03.404Z,17.60
2023-05-31T21:31:33.379Z,17.60
2023-05-31T21:34:00.804Z,17.60
2023-05-31T21:36:30.024Z,17.60
2023-05-31T21:38:57.025Z,17.50
2023-05-31T21:41:26.945Z,17.40
2023-05-31T21:43:54.791Z,17.40
2023-05-31T21:46:21.703Z,17.10
2023-05-31T21:48:48.470Z,16.90
2023-05-31T21:51:15.383Z,16.80
2023-05-31T21:53:42.125Z,16.70
2023-05-31T21:56:08.964Z,16.50
2023-05-31T21:58:37.859Z,16.40
2023-05-31T22:01:04.726Z,16.30
2023-05-31T22:03:31.909Z,16.20
2023-05-31T22:05:58.703Z,16.20
2023-05-31T22:08:25.538Z,15.80
2023-05-31T22:10:52.332Z,15.70
2023-05-31T22:13:19.111Z,15.60
2023-05-31T22:15:51.340Z,15.70
2023-05-31T22:18:21.306Z,15.40
2023-05-31T22:20:54.729Z,15.30
2023-05-31T22:23:26.276Z,15.20
2023-05-31T22:25:55.257Z,15.10
2023-05-31T22:28:23.165Z,15.00
2023-05-31T22:30:50.110Z,15.00
2023-05-31T22:33:17.071Z,14.80
2023-05-31T22:35:43.786Z,14.80
2023-05-31T22:38:10.599Z,14.80
2023-05-31T22:40:38.804Z,14.60
2023-05-31T22:43:05.541Z,14.60
2023-05-31T22:45:32.373Z,14.60
2023-05-31T22:47:59.687Z,14.60
2023-05-31T22:50:27.956Z,14.60
2023-05-31T22:52:55.140Z,14.60
2023-05-31T22:55:22.074Z,14.50
2023-05-31T22:57:48.822Z,14.20
2023-05-31T23:00:16.087Z,14.00
2023-05-31T23:02:43.885Z,14.10
2023-05-31T23:05:11.962Z,13.90
2023-05-31T23:07:42.486Z,13.90
2023-05-31T23:10:11.865Z,13.50
2023-05-31T23:12:38.738Z,13.50
2023-05-31T23:15:06.477Z,13.50
2023-05-31T23:17:40.104Z,13.50
2023-05-31T23:20:13.145Z,13.50
2023-05-31T23:22:44.898Z,13.50
2023-05-31T23:25:12.747Z,13.20
2023-05-31T23:27:41.206Z,13.10
2023-05-31T23:30:09.837Z,13.10
2023-05-31T23:32:37.560Z,13.30
2023-05-31T23:35:05.355Z,13.40
2023-05-31T23:37:35.319Z,13.60
2023-05-31T23:40:06.231Z,13.60
2023-05-31T23:42:33.819Z,13.60
2023-05-31T23:45:00.900Z,13.50
2023-05-31T23:47:27.761Z,13.50
2023-05-31T23:49:55.565Z,13.50
2023-05-31T23:52:23.017Z,13.50
2023-05-31T23:54:50.198Z,13.40
2023-05-31T23:57:16.935Z,13.20
2023-05-31T23:59:44.681Z,13.10
